Time;durP1;ratioP1;P1;durP2;ratioP2;P2;SDS_P1;SDS_P2;PMS_P1;PMS_P2;Temp;Humidity;BMP_temperature;BMP_pressure;BME280_temperature;BME280_humidity;BME280_pressure;Samples;Min_cycle;Max_cycle;Signal;HPM_P1;HPM_P2
2021/12/19 00:00:13;;;;;;;;;;;6.00;99.90;;;5.99;100.00;102370.16;4949443;28;19957;-78
2021/12/19 00:03:05;;;;;;;;;;;5.70;99.90;;;6.00;100.00;102369.31;4948373;28;19930;-78
2021/12/19 00:11:06;;;;;;;;;;;5.70;99.90;;;6.01;100.00;102371.13;4951480;28;19977;-77
2021/12/19 00:13:33;;;;;;;;;;;6.00;99.90;;;6.05;100.00;102374.72;4966978;28;19937;-79
2021/12/19 00:16:00;;;;;;;;;;;5.60;99.90;;;6.05;100.00;102375.59;4968035;28;20721;-77
2021/12/19 00:18:27;;;;;;;;;;;6.00;99.90;;;6.09;100.00;102374.84;4969612;28;19992;-77
2021/12/19 00:20:53;;;;;;;;;;;5.70;99.90;;;6.09;100.00;102368.72;4951704;28;19926;-77
2021/12/19 00:23:41;;;;;;;;;;;6.50;99.90;;;6.07;100.00;102357.34;4966682;28;19930;-79
2021/12/19 00:26:09;;;;;;;;;;;5.70;99.90;;;6.08;100.00;102353.88;4968148;28;20413;-77
2021/12/19 00:28:36;;;;;;;;;;;5.70;99.90;;;6.10;100.00;102341.75;4952407;28;19930;-77
2021/12/19 00:31:04;;;;;;;;;;;5.70;99.90;;;6.05;100.00;102344.22;4969586;28;19937;-78
2021/12/19 00:33:31;;;;;;;;;;;7.40;99.90;;;6.05;100.00;102341.59;4967022;28;19930;-78
2021/12/19 00:35:58;;;;;;;;;;;7.50;99.90;;;5.97;100.00;102341.38;4968148;28;19952;-77
2021/12/19 00:38:26;;;;;;;;;;;5.70;99.90;;;5.97;100.00;102330.06;4968204;28;19926;-78
2021/12/19 00:40:56;;;;;;;;;;;5.60;99.90;;;6.06;100.00;102332.06;4984622;28;20375;-78
2021/12/19 00:43:35;;;;;;;;;;;5.70;99.90;;;6.03;100.00;102330.22;4966839;28;19934;-78
2021/12/19 00:46:08;;;;;;;;;;;6.40;99.90;;;6.02;100.00;102327.59;4952070;28;19926;-78
2021/12/19 00:48:49;;;;;;;;;;;5.70;99.90;;;6.01;100.00;102333.59;4969268;28;19930;-79
2021/12/19 00:51:25;;;;;;;;;;;6.10;99.90;;;5.97;100.00;102325.69;4968027;28;19937;-78
2021/12/19 00:53:55;;;;;;;;;;;5.60;99.90;;;5.97;100.00;102325.69;4966599;28;19930;-79
2021/12/19 00:56:26;;;;;;;;;;;6.80;99.90;;;6.03;100.00;102325.00;4967617;28;19931;-78
2021/12/19 00:58:53;;;;;;;;;;;5.60;99.90;;;6.03;100.00;102316.31;4951598;28;19981;-79
2021/12/19 01:01:20;;;;;;;;;;;6.00;99.90;;;6.00;100.00;102314.44;4967800;28;20824;-78
2021/12/19 01:03:48;;;;;;;;;;;5.60;99.90;;;5.97;100.00;102314.38;4966678;28;19930;-78
2021/12/19 01:06:19;;;;;;;;;;;6.80;99.90;;;5.96;100.00;102307.38;4967647;28;20008;-77
2021/12/19 01:08:47;;;;;;;;;;;5.60;99.90;;;5.95;100.00;102314.31;4967757;28;19937;-78
2021/12/19 01:11:14;;;;;;;;;;;5.60;99.90;;;5.96;100.00;102313.47;4966596;28;20383;-77
2021/12/19 01:13:59;;;;;;;;;;;7.30;99.90;;;5.97;100.00;102302.19;4964348;28;20395;-77
2021/12/19 01:16:27;;;;;;;;;;;4.70;99.90;;;5.96;100.00;102307.38;4967805;28;19926;-76
2021/12/19 01:18:57;;;;;;;;;;;5.60;99.90;;;5.93;100.00;102296.81;4967846;28;19926;-77
2021/12/19 01:21:24;;;;;;;;;;;7.00;99.90;;;5.92;100.00;102302.91;4972310;28;20306;-76
2021/12/19 01:23:51;;;;;;;;;;;5.50;99.90;;;5.90;100.00;102302.88;4970018;28;19937;-77
2021/12/19 01:26:18;;;;;;;;;;;6.40;99.90;;;5.94;100.00;102306.47;4972522;28;19930;-77
2021/12/19 01:28:45;;;;;;;;;;;7.30;99.90;;;5.89;100.00;102301.09;4972367;28;19930;-77
2021/12/19 01:31:12;;;;;;;;;;;4.60;99.90;;;5.96;100.00;102296.94;4972494;28;19952;-76
2021/12/19 01:33:39;;;;;;;;;;;5.50;99.90;;;5.76;100.00;102307.72;4971288;28;20563;-77
2021/12/19 01:36:09;;;;;;;;;;;5.50;99.90;;;5.65;100.00;102314.38;4971005;28;19981;-76
2021/12/19 01:38:36;;;;;;;;;;;7.00;99.90;;;5.65;100.00;102311.78;4971087;28;19930;-77
2021/12/19 01:41:03;;;;;;;;;;;7.50;99.90;;;5.89;100.00;102315.88;4971009;28;19930;-77
2021/12/19 01:43:31;;;;;;;;;;;5.80;99.90;;;5.91;100.00;102308.97;4970886;28;20407;-78
2021/12/19 01:45:59;;;;;;;;;;;5.60;99.90;;;5.69;100.00;102318.84;4970936;28;19936;-79
2021/12/19 01:48:26;;;;;;;;;;;6.70;99.90;;;5.85;100.00;102317.53;4970873;28;19934;-78
2021/12/19 01:50:56;;;;;;;;;;;7.10;99.90;;;5.65;100.00;102322.22;4970684;28;19954;-77
2021/12/19 01:53:26;;;;;;;;;;;7.20;99.90;;;5.77;100.00;102314.69;4970455;28;20024;-78
2021/12/19 01:55:59;;;;;;;;;;;5.60;99.90;;;5.82;100.00;102307.00;4970519;28;20350;-77
2021/12/19 01:58:26;;;;;;;;;;;5.70;99.90;;;5.89;100.00;102310.66;4970755;28;20571;-77
2021/12/19 02:00:56;;;;;;;;;;;5.80;99.90;;;5.94;100.00;102320.38;4970799;28;19930;-78
2021/12/19 02:03:30;;;;;;;;;;;6.60;99.90;;;5.87;100.00;102301.91;4953233;28;19930;-76
2021/12/19 02:05:57;;;;;;;;;;;5.50;99.90;;;5.89;100.00;102305.44;4970647;28;19970;-78
2021/12/19 02:08:24;;;;;;;;;;;6.90;99.90;;;5.89;100.00;102308.94;4970276;28;19926;-78
2021/12/19 02:10:51;;;;;;;;;;;8.00;99.90;;;5.85;100.00;102299.22;4938405;28;20509;-79
2021/12/19 02:13:18;;;;;;;;;;;5.50;99.90;;;5.80;100.00;102298.22;4953992;28;19937;-79
2021/12/19 02:15:45;;;;;;;;;;;5.50;99.90;;;5.81;100.00;102293.06;4970722;28;19926;-79
2021/12/19 02:18:21;;;;;;;;;;;5.40;99.90;;;5.63;100.00;102292.56;4938468;28;19958;-78
2021/12/19 02:20:54;;;;;;;;;;;5.50;99.90;;;5.44;100.00;102291.16;4970409;28;19933;-78
2021/12/19 02:23:24;;;;;;;;;;;5.50;99.90;;;5.68;100.00;102284.00;4953250;28;19945;-78
2021/12/19 02:25:52;;;;;;;;;;;5.50;99.90;;;5.38;100.00;102276.22;4954600;28;19936;-81
2021/12/19 02:28:19;;;;;;;;;;;6.10;99.90;;;5.62;100.00;102265.56;4954043;28;19930;-78
2021/12/19 02:30:46;;;;;;;;;;;5.50;99.90;;;5.63;100.00;102272.53;4969234;28;19934;-78
2021/12/19 02:33:18;;;;;;;;;;;5.30;99.90;;;5.36;100.00;102267.47;4969092;28;20281;-79
2021/12/19 02:35:53;;;;;;;;;;;5.50;99.90;;;5.31;100.00;102269.06;4954332;28;20410;-77
2021/12/19 02:49:27;;;;;;;;;;;5.00;99.90;;;5.27;100.00;102257.63;4962182;28;19937;-77
2021/12/19 02:51:55;;;;;;;;;;;7.10;99.90;;;5.16;100.00;102259.06;4969871;28;19926;-78
2021/12/19 02:54:23;;;;;;;;;;;5.40;99.90;;;5.35;100.00;102253.50;4969671;28;19934;-78
2021/12/19 02:56:51;;;;;;;;;;;5.40;99.90;;;5.30;100.00;102265.56;4969168;28;19926;-77
2021/12/19 02:59:18;;;;;;;;;;;7.20;99.90;;;5.32;100.00;102255.16;4969373;28;19930;-78
2021/12/19 03:01:46;;;;;;;;;;;6.20;99.90;;;5.39;100.00;102251.88;4983716;28;20383;-77
2021/12/19 03:04:13;;;;;;;;;;;5.20;99.90;;;5.30;100.00;102247.28;4968557;28;19930;-77
2021/12/19 03:06:48;;;;;;;;;;;7.50;99.90;;;5.28;100.00;102245.47;4969410;28;20408;-78
2021/12/19 03:09:29;;;;;;;;;;;5.10;99.90;;;5.27;100.00;102243.69;4969515;28;19926;-78
2021/12/19 03:20:00;;;;;;;;;;;5.50;99.90;;;5.31;100.00;102256.88;4950132;29;19927;-77
2021/12/19 03:22:27;;;;;;;;;;;6.50;99.90;;;5.33;100.00;102255.19;4932948;29;20352;-77
2021/12/19 03:24:54;;;;;;;;;;;5.00;99.90;;;5.24;100.00;102241.91;4949398;29;20338;-78
2021/12/19 03:27:21;;;;;;;;;;;5.00;99.90;;;5.19;100.00;102248.69;4949874;29;19985;-78
2021/12/19 03:29:48;;;;;;;;;;;5.10;99.90;;;5.25;100.00;102243.66;4949571;29;19957;-78
2021/12/19 03:32:15;;;;;;;;;;;5.20;99.90;;;5.32;100.00;102250.81;4948739;28;19937;-77
2021/12/19 03:34:42;;;;;;;;;;;5.10;99.90;;;5.21;100.00;102242.69;4949224;28;19927;-77
2021/12/19 03:37:09;;;;;;;;;;;6.90;99.90;;;5.30;100.00;102226.41;4950006;29;19945;-80
2021/12/19 03:39:54;;;;;;;;;;;5.00;99.90;;;5.30;100.00;102230.72;4948784;29;19938;-78
2021/12/19 03:42:25;;;;;;;;;;;5.10;99.90;;;5.29;100.00;102222.03;4964355;28;19941;-78
2021/12/19 03:44:53;;;;;;;;;;;5.00;99.90;;;5.34;100.00;102212.59;4949071;28;19973;-77
2021/12/19 03:47:20;;;;;;;;;;;5.50;99.90;;;5.18;100.00;102218.22;4949280;28;19941;-78
2021/12/19 03:49:47;;;;;;;;;;;7.60;99.90;;;5.20;100.00;102219.16;4949425;29;19934;-78
2021/12/19 03:52:14;;;;;;;;;;;5.80;99.90;;;5.11;100.00;102215.44;4948728;29;19926;-78
2021/12/19 03:54:41;;;;;;;;;;;6.00;99.90;;;5.20;100.00;102208.69;4948900;29;19930;-78
2021/12/19 03:57:08;;;;;;;;;;;5.00;99.90;;;5.24;100.00;102203.63;4949401;28;19927;-78
2021/12/19 03:59:35;;;;;;;;;;;5.00;99.90;;;5.18;100.00;102206.06;4949553;28;20425;-76
2021/12/19 04:02:06;;;;;;;;;;;4.90;99.90;;;5.13;100.00;102204.16;4948976;28;19933;-77
2021/12/19 04:04:37;;;;;;;;;;;5.00;99.90;;;5.26;100.00;102206.28;4949154;29;20319;-78
2021/12/19 04:07:04;;;;;;;;;;;4.90;99.90;;;5.24;100.00;102202.75;4949193;29;20419;-77
2021/12/19 04:09:31;;;;;;;;;;;7.30;99.90;;;5.32;100.00;102213.41;4949199;28;19931;-79
2021/12/19 04:11:58;;;;;;;;;;;5.30;99.90;;;5.30;100.00;102205.53;4949275;29;20387;-78
2021/12/19 04:14:28;;;;;;;;;;;5.00;99.90;;;5.00;100.00;102202.94;4948521;29;20463;-79
2021/12/19 04:16:55;;;;;;;;;;;5.70;99.90;;;4.92;100.00;102205.34;4948932;29;19926;-77
2021/12/19 04:19:22;;;;;;;;;;;5.50;99.90;;;5.09;100.00;102193.66;4950815;29;19930;-77
2021/12/19 04:21:49;;;;;;;;;;;7.20;99.90;;;5.14;100.00;102185.94;4955795;28;20371;-77
2021/12/19 04:24:16;;;;;;;;;;;6.40;99.90;;;5.20;100.00;102182.59;4964143;28;19941;-78
2021/12/19 04:26:43;;;;;;;;;;;5.00;99.90;;;5.20;100.00;102182.59;4964860;28;19926;-78
2021/12/19 04:29:10;;;;;;;;;;;5.80;99.90;;;5.11;100.00;102186.75;4964950;28;19930;-77
2021/12/19 04:31:38;;;;;;;;;;;5.00;99.90;;;5.20;100.00;102185.22;4964564;28;19937;-78
2021/12/19 04:34:05;;;;;;;;;;;6.60;99.90;;;5.11;100.00;102181.53;4963330;28;19926;-77
2021/12/19 04:36:40;;;;;;;;;;;4.90;99.90;;;5.14;100.00;102191.16;4964560;28;19930;-76
2021/12/19 04:51:00;;;;;;;;;;;6.90;99.90;;;5.19;100.00;102183.44;4950188;29;19930;-78
2021/12/19 04:53:03;;;;;;;;;;;6.80;99.90;;;5.14;100.00;102182.44;4948979;28;19937;-78
2021/12/19 05:03:44;;;;;;;;;;;5.50;99.90;;;5.05;100.00;102170.03;4971903;28;19930;-78
2021/12/19 05:14:35;;;;;;;;;;;5.50;99.90;;;5.18;100.00;102166.03;4953847;28;19930;-78
2021/12/19 05:17:08;;;;;;;;;;;6.70;99.90;;;5.22;100.00;102166.16;4971870;28;19932;-77
2021/12/19 05:19:49;;;;;;;;;;;5.00;99.90;;;5.16;100.00;102159.88;4987211;28;19937;-78
2021/12/19 05:22:17;;;;;;;;;;;5.00;99.90;;;5.09;100.00;102154.50;4987622;28;19934;-78
2021/12/19 05:27:30;;;;;;;;;;;5.40;99.90;;;5.01;100.00;102150.78;4972826;28;19937;-78
2021/12/19 05:29:59;;;;;;;;;;;6.40;99.90;;;5.14;100.00;102156.34;4971562;28;19955;-78
2021/12/19 05:32:26;;;;;;;;;;;4.90;99.90;;;5.22;100.00;102154.81;4955952;28;20535;-78
2021/12/19 05:34:53;;;;;;;;;;;6.20;99.90;;;5.21;100.00;102164.41;4939656;28;20295;-79
2021/12/19 05:45:40;;;;;;;;;;;4.90;99.90;;;5.17;100.00;102146.00;4972949;28;19930;-78
2021/12/19 05:48:07;;;;;;;;;;;6.60;99.90;;;5.12;100.00;102138.03;4972706;28;19933;-77
2021/12/19 05:50:34;;;;;;;;;;;5.40;99.90;;;5.15;100.00;102134.63;4987469;28;19933;-78
2021/12/19 05:53:01;;;;;;;;;;;4.90;99.90;;;5.06;100.00;102133.53;4987659;28;20006;-77
2021/12/19 05:55:28;;;;;;;;;;;5.80;99.90;;;5.04;100.00;102135.22;4971363;28;19933;-79
2021/12/19 05:57:55;;;;;;;;;;;4.90;99.90;;;5.09;100.00;102132.75;4972664;28;19926;-76
2021/12/19 06:00:22;;;;;;;;;;;6.40;99.90;;;5.09;100.00;102132.75;4971168;28;19926;-77
2021/12/19 06:02:52;;;;;;;;;;;7.50;99.90;;;5.11;100.00;102125.84;4975826;28;19914;-78
2021/12/19 06:05:19;;;;;;;;;;;4.90;99.90;;;5.15;100.00;102121.59;4997818;28;19957;-80
2021/12/19 06:07:46;;;;;;;;;;;4.90;99.90;;;5.18;100.00;102116.44;4975405;28;20601;-78
2021/12/19 06:10:13;;;;;;;;;;;6.00;99.90;;;5.23;100.00;102122.69;4973396;28;19927;-78
2021/12/19 06:12:43;;;;;;;;;;;4.90;99.90;;;4.99;100.00;102120.28;4973039;28;19933;-78
2021/12/19 06:15:10;;;;;;;;;;;4.90;99.90;;;4.83;100.00;102107.72;4974298;28;19933;-78
2021/12/19 06:17:44;;;;;;;;;;;7.10;99.90;;;4.78;100.00;102106.72;4971156;28;19930;-78
2021/12/19 06:20:12;;;;;;;;;;;5.00;99.90;;;4.83;100.00;102106.81;4971273;28;19950;-78
2021/12/19 06:22:39;;;;;;;;;;;4.90;99.90;;;4.87;100.00;102107.78;4970348;28;19926;-78
2021/12/19 06:25:07;;;;;;;;;;;6.70;99.90;;;4.84;100.00;102111.22;4970689;28;19934;-78
2021/12/19 06:27:37;;;;;;;;;;;5.00;99.90;;;4.85;100.00;102114.69;4970552;28;19926;-78
2021/12/19 06:30:08;;;;;;;;;;;4.90;99.90;;;4.90;100.00;102108.75;4970262;28;19985;-78
2021/12/19 06:32:35;;;;;;;;;;;5.00;99.90;;;4.90;100.00;102115.69;4986212;28;19932;-77
2021/12/19 06:35:10;;;;;;;;;;;5.10;99.90;;;4.86;100.00;102106.03;4986695;28;20015;-77
2021/12/19 06:37:38;;;;;;;;;;;4.90;99.90;;;5.00;100.00;102109.03;4969335;28;19936;-78
2021/12/19 06:40:10;;;;;;;;;;;5.00;99.90;;;5.13;100.00;102112.84;4986183;28;19972;-77
2021/12/19 06:42:37;;;;;;;;;;;4.90;99.90;;;5.21;100.00;102100.84;4986029;28;19926;-77
2021/12/19 06:45:04;;;;;;;;;;;5.00;99.90;;;5.23;100.00;102110.50;4971593;28;19937;-78
2021/12/19 06:47:31;;;;;;;;;;;4.90;99.90;;;4.87;100.00;102100.84;4986079;28;20131;-78
2021/12/19 06:49:58;;;;;;;;;;;4.90;99.90;;;4.85;100.00;102105.16;4970011;28;19949;-79
2021/12/19 06:52:44;;;;;;;;;;;5.60;99.90;;;4.88;100.00;102110.44;4983660;28;19930;-77
2021/12/19 06:55:13;;;;;;;;;;;5.00;99.90;;;5.11;100.00;102107.56;4985931;28;19930;-77
2021/12/19 06:57:41;;;;;;;;;;;4.90;99.90;;;5.20;100.00;102102.59;4969989;28;19936;-77
2021/12/19 07:00:11;;;;;;;;;;;4.90;99.90;;;5.14;100.00;102098.94;4985997;28;19930;-77
2021/12/19 07:02:39;;;;;;;;;;;4.90;99.90;;;4.91;100.00;102093.97;4985405;28;19980;-77
2021/12/19 07:05:07;;;;;;;;;;;5.00;99.90;;;5.16;100.00;102095.53;4985884;28;19930;-77
2021/12/19 07:07:34;;;;;;;;;;;5.00;99.90;;;4.91;100.00;102097.47;4985697;28;20399;-76
2021/12/19 07:10:01;;;;;;;;;;;4.90;99.90;;;4.92;100.00;102093.16;4969687;28;19931;-79
2021/12/19 07:12:28;;;;;;;;;;;5.60;99.90;;;4.94;100.00;102101.91;4970739;28;19934;-77
2021/12/19 07:14:55;;;;;;;;;;;4.90;99.90;;;4.91;100.00;102101.81;4970839;28;19929;-77
2021/12/19 07:17:23;;;;;;;;;;;5.30;99.90;;;5.20;100.00;102113.03;4968989;28;19937;-77
2021/12/19 07:19:50;;;;;;;;;;;5.00;99.90;;;5.20;100.00;102109.53;4969560;28;19966;-77
2021/12/19 07:22:18;;;;;;;;;;;5.10;99.90;;;4.97;100.00;102102.00;4985166;28;19927;-78
2021/12/19 07:24:45;;;;;;;;;;;6.60;99.90;;;4.88;100.00;102104.34;4985504;28;19934;-78
2021/12/19 07:27:13;;;;;;;;;;;5.90;99.90;;;5.11;100.00;102102.34;4985409;28;19930;-76
2021/12/19 07:29:41;;;;;;;;;;;5.00;99.90;;;5.19;100.00;102099.94;4985536;28;20443;-77
2021/12/19 07:32:08;;;;;;;;;;;5.30;99.90;;;5.23;100.00;102104.41;4969286;28;20318;-79
2021/12/19 07:34:37;;;;;;;;;;;5.00;99.90;;;5.26;100.00;102099.28;4968887;28;19926;-78
2021/12/19 07:37:05;;;;;;;;;;;6.00;99.90;;;5.28;100.00;102101.91;4985218;28;19926;-76
2021/12/19 07:42:03;;;;;;;;;;;7.70;99.90;;;5.23;100.00;102112.25;4985545;28;20605;-77
2021/12/19 07:44:30;;;;;;;;;;;5.00;99.90;;;5.24;100.00;102114.00;4985370;28;19926;-76
2021/12/19 07:46:57;;;;;;;;;;;7.00;99.90;;;5.30;100.00;102103.72;4968942;28;19926;-76
2021/12/19 07:49:24;;;;;;;;;;;5.00;99.90;;;5.27;100.00;102106.25;4968652;28;19926;-77
2021/12/19 07:51:51;;;;;;;;;;;5.80;99.90;;;5.39;100.00;102114.41;4984883;28;19930;-77
2021/12/19 07:54:18;;;;;;;;;;;4.70;99.90;;;5.33;100.00;102108.16;4969408;28;19929;-76
2021/12/19 07:56:46;;;;;;;;;;;5.90;99.90;;;5.34;100.00;102105.56;4984562;28;19933;-75
2021/12/19 07:59:14;;;;;;;;;;;5.10;99.90;;;5.24;100.00;102099.22;4983909;28;19930;-75
2021/12/19 08:01:41;;;;;;;;;;;5.10;99.90;;;5.21;100.00;102108.69;4983768;28;19930;-76
2021/12/19 08:04:08;;;;;;;;;;;5.00;99.90;;;5.05;100.00;102108.28;4968932;28;19930;-76
2021/12/19 08:06:35;;;;;;;;;;;5.80;99.90;;;5.14;100.00;102098.94;4985023;28;19926;-77
2021/12/19 08:09:09;;;;;;;;;;;4.90;99.90;;;5.29;100.00;102098.44;4969670;28;19941;-76
2021/12/19 08:11:39;;;;;;;;;;;6.00;99.90;;;5.21;100.00;102098.25;4952190;28;20565;-76
2021/12/19 08:14:10;;;;;;;;;;;4.80;99.90;;;5.28;100.00;102097.59;4967496;28;19930;-76
2021/12/19 08:16:37;;;;;;;;;;;5.00;99.90;;;5.34;100.00;102108.16;4968420;28;19926;-76
2021/12/19 08:19:04;;;;;;;;;;;5.00;99.90;;;5.30;100.00;102092.38;4967898;28;19926;-76
2021/12/19 08:21:31;;;;;;;;;;;5.00;99.90;;;5.34;100.00;102083.81;4977442;28;20276;-76
2021/12/19 08:24:01;;;;;;;;;;;5.00;99.90;;;5.19;100.00;102079.97;4965895;28;19980;-76
2021/12/19 08:26:31;;;;;;;;;;;5.10;99.90;;;5.06;100.00;102070.91;4949917;28;20020;-76
2021/12/19 08:29:03;;;;;;;;;;;5.10;99.90;;;5.21;100.00;102079.97;4963097;28;19936;-75
2021/12/19 08:31:31;;;;;;;;;;;6.00;99.90;;;5.15;100.00;102072.91;4964705;28;19937;-76
2021/12/19 08:33:58;;;;;;;;;;;5.10;99.90;;;5.19;100.00;102077.34;4949513;29;19937;-75
2021/12/19 08:36:27;;;;;;;;;;;4.90;99.90;;;5.11;100.00;102073.66;4950057;29;20001;-76
2021/12/19 08:38:54;;;;;;;;;;;5.20;99.90;;;5.05;100.00;102070.88;4948569;29;19930;-76
2021/12/19 08:41:21;;;;;;;;;;;5.80;99.90;;;5.05;100.00;102066.53;4964584;28;19937;-76
2021/12/19 08:43:48;;;;;;;;;;;4.90;99.90;;;5.00;100.00;102057.72;4949589;28;19930;-76
2021/12/19 08:46:15;;;;;;;;;;;4.70;99.90;;;5.02;100.00;102065.59;4964376;28;19952;-76
2021/12/19 08:48:42;;;;;;;;;;;6.60;99.90;;;5.00;100.00;102067.28;4977919;28;19926;-76
2021/12/19 08:51:10;;;;;;;;;;;6.70;99.90;;;5.02;100.00;102065.59;4951459;28;20342;-77
2021/12/19 08:53:37;;;;;;;;;;;5.70;99.90;;;5.02;100.00;102063.84;4967300;28;20379;-76
2021/12/19 08:56:04;;;;;;;;;;;4.90;99.90;;;5.07;100.00;102069.19;4967584;28;19933;-76
2021/12/19 08:58:31;;;;;;;;;;;6.10;99.90;;;5.04;100.00;102062.16;4967202;28;19940;-76
2021/12/19 09:01:01;;;;;;;;;;;4.80;99.90;;;5.01;100.00;102056.88;4965108;28;19931;-76
2021/12/19 09:03:32;;;;;;;;;;;4.90;99.90;;;5.09;100.00;102055.34;4938928;28;19930;-76
2021/12/19 09:06:00;;;;;;;;;;;4.90;99.90;;;5.06;100.00;102060.47;4967804;28;19963;-76
2021/12/19 09:08:30;;;;;;;;;;;4.90;99.90;;;5.04;100.00;102053.47;4983671;28;19926;-77
2021/12/19 09:10:57;;;;;;;;;;;5.00;99.90;;;5.07;100.00;102056.16;4968834;28;19926;-76
2021/12/19 09:13:24;;;;;;;;;;;4.80;99.90;;;4.93;100.00;102059.28;4968769;28;19926;-79
2021/12/19 09:15:52;;;;;;;;;;;5.00;99.90;;;4.90;100.00;102064.41;4969710;28;19930;-77
2021/12/19 09:18:20;;;;;;;;;;;5.00;99.90;;;5.01;100.00;102067.31;4951220;28;19995;-77
2021/12/19 09:20:48;;;;;;;;;;;5.00;99.90;;;4.91;100.00;102062.69;4951463;29;19932;-77
2021/12/19 09:23:16;;;;;;;;;;;5.70;99.90;;;4.70;100.00;102071.69;4951152;29;20296;-78
2021/12/19 09:25:44;;;;;;;;;;;4.90;99.90;;;4.70;100.00;102069.09;4952011;28;20011;-77
2021/12/19 09:28:11;;;;;;;;;;;7.10;99.90;;;4.73;100.00;102063.09;4971488;28;19930;-77
2021/12/19 09:30:38;;;;;;;;;;;5.40;99.90;;;4.73;100.00;102053.53;4976151;28;19930;-76
2021/12/19 09:33:05;;;;;;;;;;;5.80;99.90;;;4.64;100.00;102061.09;4969618;28;19932;-77
2021/12/19 09:35:34;;;;;;;;;;;5.30;99.90;;;4.64;100.00;102056.75;4964318;28;20291;-79
2021/12/19 09:38:03;;;;;;;;;;;4.90;99.90;;;4.72;100.00;102063.94;4986610;28;19969;-78
2021/12/19 09:40:35;;;;;;;;;;;7.30;99.90;;;4.62;100.00;102062.78;4966222;28;19936;-77
2021/12/19 09:43:08;;;;;;;;;;;4.70;99.90;;;4.62;100.00;102060.19;4974074;28;19937;-77
2021/12/19 09:45:36;;;;;;;;;;;5.00;99.90;;;4.73;100.00;102058.72;4973852;28;19926;-77
2021/12/19 09:48:03;;;;;;;;;;;4.90;99.90;;;4.70;100.00;102053.44;4974828;28;20457;-77
2021/12/19 09:50:30;;;;;;;;;;;5.00;99.90;;;4.68;100.00;102036.88;4958106;28;19965;-77
2021/12/19 09:52:57;;;;;;;;;;;6.80;99.90;;;4.78;100.00;102048.44;4957916;28;20408;-77
2021/12/19 09:55:28;;;;;;;;;;;4.90;99.90;;;4.72;100.00;102033.50;4957160;28;19930;-76
2021/12/19 09:57:57;;;;;;;;;;;4.80;99.90;;;4.68;100.00;102035.16;4982523;28;19957;-77
2021/12/19 10:00:24;;;;;;;;;;;5.00;99.90;;;4.67;100.00;102025.53;4976398;28;19937;-79
2021/12/19 10:02:51;;;;;;;;;;;4.90;99.90;;;4.72;100.00;102028.28;4963662;28;19965;-77
2021/12/19 10:05:26;;;;;;;;;;;7.00;99.90;;;4.68;100.00;102029.94;4971820;28;19930;-77
2021/12/19 10:07:58;;;;;;;;;;;4.90;99.90;;;4.74;100.00;102030.94;4986719;28;20426;-76
2021/12/19 10:10:46;;;;;;;;;;;4.90;99.90;;;4.81;100.00;102031.16;4970704;28;19926;-77
2021/12/19 10:13:14;;;;;;;;;;;5.00;99.90;;;4.75;100.00;102028.38;4986612;28;19934;-76
2021/12/19 10:15:44;;;;;;;;;;;4.90;99.90;;;4.72;100.00;102023.06;4970578;28;20036;-76
2021/12/19 10:18:13;;;;;;;;;;;5.80;99.90;;;4.83;100.00;102021.63;4970817;28;19930;-75
2021/12/19 10:20:43;;;;;;;;;;;4.90;99.90;;;4.89;100.00;102017.41;4954192;28;19926;-76
2021/12/19 10:23:21;;;;;;;;;;;5.10;99.90;;;4.78;100.00;102011.91;4970986;28;19932;-76
2021/12/19 10:26:04;;;;;;;;;;;5.00;99.90;;;4.84;100.00;102004.28;4969941;28;19984;-75
2021/12/19 10:28:31;;;;;;;;;;;5.00;99.90;;;4.89;100.00;102002.66;4970233;28;19930;-75
2021/12/19 10:31:00;;;;;;;;;;;7.40;99.90;;;4.91;100.00;101993.16;4969792;28;19937;-75
2021/12/19 10:33:32;;;;;;;;;;;4.10;99.90;;;4.90;100.00;101991.38;4985782;28;19926;-75
2021/12/19 10:36:05;;;;;;;;;;;5.10;99.90;;;4.83;100.00;101992.06;4969713;28;19936;-75
2021/12/19 10:38:35;;;;;;;;;;;5.00;99.90;;;4.86;100.00;101980.81;4969928;28;19937;-75
2021/12/19 10:41:11;;;;;;;;;;;5.10;99.90;;;4.87;100.00;101982.59;4971087;28;20025;-75
2021/12/19 10:43:57;;;;;;;;;;;5.20;99.90;;;4.82;100.00;101972.94;4969260;28;19930;-75
2021/12/19 10:46:31;;;;;;;;;;;5.10;99.90;;;4.84;100.00;101954.72;4969349;28;19934;-75
2021/12/19 10:49:00;;;;;;;;;;;5.00;99.90;;;4.85;100.00;101960.81;4969669;28;20024;-75
2021/12/19 10:51:36;;;;;;;;;;;5.60;99.90;;;4.89;100.00;101958.31;4972811;28;19954;-76
2021/12/19 10:54:04;;;;;;;;;;;6.20;99.90;;;4.93;100.00;101954.94;4976677;28;19958;-76
2021/12/19 10:56:36;;;;;;;;;;;5.20;99.90;;;4.90;100.00;101954.88;4970530;28;20025;-77
2021/12/19 10:59:16;;;;;;;;;;;5.40;99.90;;;5.01;100.00;101947.31;4971649;28;19926;-76
2021/12/19 11:01:45;;;;;;;;;;;5.20;99.90;;;4.96;100.00;101943.72;4969977;28;19934;-75
2021/12/19 11:04:22;;;;;;;;;;;5.50;99.90;;;5.00;100.00;101950.75;4953402;28;19930;-75
2021/12/19 11:06:52;;;;;;;;;;;6.40;99.90;;;5.00;100.00;101931.63;4968374;28;19927;-75
2021/12/19 11:09:24;;;;;;;;;;;5.40;99.90;;;5.01;100.00;101929.03;4965981;28;19938;-76
2021/12/19 11:12:03;;;;;;;;;;;5.20;99.90;;;4.98;100.00;101926.38;4959442;28;19965;-76
2021/12/19 11:14:40;;;;;;;;;;;5.30;99.90;;;5.15;100.00;101923.28;4973512;28;19930;-74
2021/12/19 11:17:14;;;;;;;;;;;5.20;99.90;;;5.19;100.00;101909.44;4969238;28;20020;-75
2021/12/19 11:19:43;;;;;;;;;;;5.30;99.90;;;5.04;100.00;101905.63;4969220;28;19930;-74
2021/12/19 11:22:27;;;;;;;;;;;5.20;99.90;;;5.04;100.00;101897.78;4969232;28;19938;-74
2021/12/19 11:25:03;;;;;;;;;;;5.10;99.90;;;5.10;100.00;101902.28;4952783;28;20602;-74
2021/12/19 11:27:33;;;;;;;;;;;5.20;99.90;;;5.05;100.00;101894.34;4969173;28;19958;-75
2021/12/19 11:30:00;;;;;;;;;;;5.20;99.90;;;5.03;100.00;101883.00;4968861;28;19961;-75
2021/12/19 11:32:47;;;;;;;;;;;5.20;99.90;;;5.05;100.00;101885.66;4966527;28;20569;-74
2021/12/19 11:35:20;;;;;;;;;;;5.20;99.90;;;5.11;100.00;101881.47;4964769;28;20025;-75
2021/12/19 11:37:52;;;;;;;;;;;5.10;99.90;;;5.17;100.00;101872.88;4953228;28;20502;-74
2021/12/19 11:40:21;;;;;;;;;;;7.00;99.90;;;5.11;100.00;101871.03;4947560;29;20388;-75
2021/12/19 11:42:48;;;;;;;;;;;6.80;99.90;;;5.19;100.00;101862.47;4948558;29;19931;-75
2021/12/19 11:45:36;;;;;;;;;;;5.20;99.90;;;5.22;100.00;101862.53;4964977;28;19981;-77
2021/12/19 11:48:25;;;;;;;;;;;5.20;99.90;;;5.31;100.00;101849.69;4948649;29;20411;-75
2021/12/19 11:51:14;;;;;;;;;;;5.30;99.90;;;5.15;100.00;101848.50;4966986;28;20656;-75
2021/12/19 11:53:43;;;;;;;;;;;5.90;99.90;;;5.20;100.00;101840.75;4948794;29;20476;-78
2021/12/19 11:56:30;;;;;;;;;;;5.30;99.90;;;5.21;100.00;101838.19;4950129;29;19977;-75
2021/12/19 11:58:57;;;;;;;;;;;5.30;99.90;;;5.23;100.00;101826.03;4965207;28;20299;-73
2021/12/19 12:01:31;;;;;;;;;;;3.00;99.90;;;5.28;100.00;101826.16;4950197;28;19934;-74
2021/12/19 12:04:00;;;;;;;;;;;5.20;99.90;;;5.22;100.00;101823.38;4948319;28;19981;-74
2021/12/19 12:06:38;;;;;;;;;;;5.20;99.90;;;5.18;100.00;101827.69;4948852;29;19926;-74
2021/12/19 12:09:11;;;;;;;;;;;5.40;99.90;;;5.25;100.00;101818.25;4948913;29;20363;-74
2021/12/19 12:12:03;;;;;;;;;;;5.30;99.90;;;5.27;100.00;101818.28;4957055;28;20536;-74
2021/12/19 12:14:38;;;;;;;;;;;5.90;99.90;;;5.26;100.00;101804.34;4967930;28;19981;-74
2021/12/19 12:17:11;;;;;;;;;;;5.20;99.90;;;5.22;100.00;101790.34;4969521;28;19933;-74
2021/12/19 12:19:44;;;;;;;;;;;5.90;99.90;;;5.29;100.00;101793.09;4968229;28;20375;-74
2021/12/19 12:22:18;;;;;;;;;;;5.40;99.90;;;5.28;100.00;101793.94;4967958;28;19926;-75
2021/12/19 12:25:06;;;;;;;;;;;5.40;99.90;;;5.23;100.00;101783.44;4969128;28;20000;-75
2021/12/19 12:27:41;;;;;;;;;;;5.40;99.90;;;5.35;100.00;101782.78;4974038;28;19980;-75
2021/12/19 12:30:12;;;;;;;;;;;5.30;99.90;;;5.30;100.00;101777.47;4967663;28;19981;-75
2021/12/19 12:32:40;;;;;;;;;;;5.30;99.90;;;5.22;100.00;101763.38;4966804;28;19980;-75
2021/12/19 12:35:12;;;;;;;;;;;5.40;99.90;;;5.28;100.00;101755.69;4968906;28;20011;-75